sensor_id;sensor_type;location;lat;lon;timestamp;P1;durP1;ratioP1;P2;durP2;ratioP2
2299;SDS011;1158;48.750;9.078;2023-05-07T00:00:23;5.23;;;3.80;;
2299;SDS011;1158;48.750;9.078;2023-05-07T00:02:50;4.73;;;3.73;;
2299;SDS011;1158;48.750;9.078;2023-05-07T00:05:17;5.30;;;3.50;;
2299;SDS011;1158;48.750;9.078;2023-05-07T00:07:44;7.70;;;3.40;;
2299;SDS011;1158;48.750;9.078;2023-05-07T00:10:11;6.37;;;3.93;;
2299;SDS011;1158;48.750;9.078;2023-05-07T00:12:39;6.07;;;4.17;;
2299;SDS011;1158;48.750;9.078;2023-05-07T00:15:07;9.30;;;4.33;;
2299;SDS011;1158;48.750;9.078;2023-05-07T00:17:34;6.30;;;4.27;;
2299;SDS011;1158;48.750;9.078;2023-05-07T00:20:01;5.67;;;4.37;;
2299;SDS011;1158;48.750;9.078;2023-05-07T00:22:28;5.90;;;3.90;;
2299;SDS011;1158;48.750;9.078;2023-05-07T00:24:56;7.73;;;4.17;;
2299;SDS011;1158;48.750;9.078;2023-05-07T00:27:22;6.20;;;4.10;;
2299;SDS011;1158;48.750;9.078;2023-05-07T00:29:50;6.27;;;3.83;;
2299;SDS011;1158;48.750;9.078;2023-05-07T00:32:17;5.60;;;4.27;;
2299;SDS011;1158;48.750;9.078;2023-05-07T00:34:44;7.13;;;4.13;;
2299;SDS011;1158;48.750;9.078;2023-05-07T00:37:11;5.17;;;3.93;;
2299;SDS011;1158;48.750;9.078;2023-05-07T00:39:37;6.23;;;4.03;;
2299;SDS011;1158;48.750;9.078;2023-05-07T00:42:04;5.73;;;4.27;;
2299;SDS011;1158;48.750;9.078;2023-05-07T00:44:31;7.10;;;4.20;;
2299;SDS011;1158;48.750;9.078;2023-05-07T00:46:59;9.13;;;4.40;;
2299;SDS011;1158;48.750;9.078;2023-05-07T00:49:31;6.57;;;4.47;;
2299;SDS011;1158;48.750;9.078;2023-05-07T00:52:04;4.70;;;4.00;;
2299;SDS011;1158;48.750;9.078;2023-05-07T00:54:32;5.80;;;4.73;;
2299;SDS011;1158;48.750;9.078;2023-05-07T00:57:00;7.20;;;4.90;;
2299;SDS011;1158;48.750;9.078;2023-05-07T00:59:28;6.13;;;4.60;;
2299;SDS011;1158;48.750;9.078;2023-05-07T01:01:56;5.37;;;4.17;;
2299;SDS011;1158;48.750;9.078;2023-05-07T01:04:24;6.87;;;4.40;;
2299;SDS011;1158;48.750;9.078;2023-05-07T01:06:51;5.93;;;3.50;;
2299;SDS011;1158;48.750;9.078;2023-05-07T01:09:19;4.10;;;3.43;;
2299;SDS011;1158;48.750;9.078;2023-05-07T01:11:46;9.37;;;4.80;;
2299;SDS011;1158;48.750;9.078;2023-05-07T01:14:15;6.60;;;4.67;;
2299;SDS011;1158;48.750;9.078;2023-05-07T01:16:42;10.03;;;4.40;;
2299;SDS011;1158;48.750;9.078;2023-05-07T01:19:09;5.70;;;4.50;;
2299;SDS011;1158;48.750;9.078;2023-05-07T01:21:40;5.13;;;4.23;;
2299;SDS011;1158;48.750;9.078;2023-05-07T01:24:12;6.37;;;4.83;;
2299;SDS011;1158;48.750;9.078;2023-05-07T01:26:40;5.83;;;4.50;;
2299;SDS011;1158;48.750;9.078;2023-05-07T01:29:08;7.80;;;4.60;;
2299;SDS011;1158;48.750;9.078;2023-05-07T01:31:35;5.90;;;4.50;;
2299;SDS011;1158;48.750;9.078;2023-05-07T01:34:03;7.10;;;4.50;;
2299;SDS011;1158;48.750;9.078;2023-05-07T01:36:30;8.37;;;4.53;;
2299;SDS011;1158;48.750;9.078;2023-05-07T01:38:59;8.00;;;4.40;;
2299;SDS011;1158;48.750;9.078;2023-05-07T01:41:27;6.77;;;4.67;;
2299;SDS011;1158;48.750;9.078;2023-05-07T01:43:54;6.67;;;5.00;;
2299;SDS011;1158;48.750;9.078;2023-05-07T01:46:22;4.30;;;3.90;;
2299;SDS011;1158;48.750;9.078;2023-05-07T01:48:50;8.30;;;5.60;;
2299;SDS011;1158;48.750;9.078;2023-05-07T01:51:17;6.60;;;5.27;;
2299;SDS011;1158;48.750;9.078;2023-05-07T01:53:44;6.13;;;4.70;;
2299;SDS011;1158;48.750;9.078;2023-05-07T01:56:15;8.17;;;4.07;;
2299;SDS011;1158;48.750;9.078;2023-05-07T01:58:43;8.30;;;4.20;;
2299;SDS011;1158;48.750;9.078;2023-05-07T02:01:10;8.00;;;4.33;;
2299;SDS011;1158;48.750;9.078;2023-05-07T02:03:37;5.07;;;4.10;;
2299;SDS011;1158;48.750;9.078;2023-05-07T02:06:04;7.67;;;4.30;;
2299;SDS011;1158;48.750;9.078;2023-05-07T02:08:31;7.17;;;4.90;;
2299;SDS011;1158;48.750;9.078;2023-05-07T02:10:58;9.77;;;4.80;;
2299;SDS011;1158;48.750;9.078;2023-05-07T02:13:25;8.70;;;4.00;;
2299;SDS011;1158;48.750;9.078;2023-05-07T02:15:54;6.63;;;4.47;;
2299;SDS011;1158;48.750;9.078;2023-05-07T02:18:20;5.80;;;4.20;;
2299;SDS011;1158;48.750;9.078;2023-05-07T02:20:47;6.00;;;4.53;;
2299;SDS011;1158;48.750;9.078;2023-05-07T02:23:14;5.40;;;4.53;;
2299;SDS011;1158;48.750;9.078;2023-05-07T02:25:41;7.13;;;4.70;;
2299;SDS011;1158;48.750;9.078;2023-05-07T02:28:07;8.33;;;4.57;;
2299;SDS011;1158;48.750;9.078;2023-05-07T02:30:36;7.63;;;4.20;;
2299;SDS011;1158;48.750;9.078;2023-05-07T02:33:04;5.43;;;4.50;;
2299;SDS011;1158;48.750;9.078;2023-05-07T02:35:32;7.00;;;4.60;;
2299;SDS011;1158;48.750;9.078;2023-05-07T02:37:58;9.00;;;4.80;;
2299;SDS011;1158;48.750;9.078;2023-05-07T02:40:25;8.00;;;5.23;;
2299;SDS011;1158;48.750;9.078;2023-05-07T02:42:52;4.77;;;4.00;;
2299;SDS011;1158;48.750;9.078;2023-05-07T02:45:19;6.90;;;4.33;;
2299;SDS011;1158;48.750;9.078;2023-05-07T02:47:45;7.13;;;4.37;;
2299;SDS011;1158;48.750;9.078;2023-05-07T02:50:13;9.60;;;5.00;;
2299;SDS011;1158;48.750;9.078;2023-05-07T02:52:40;7.13;;;4.53;;
2299;SDS011;1158;48.750;9.078;2023-05-07T02:55:07;6.47;;;4.47;;
2299;SDS011;1158;48.750;9.078;2023-05-07T02:57:35;5.97;;;4.57;;
2299;SDS011;1158;48.750;9.078;2023-05-07T03:00:09;5.27;;;4.57;;
2299;SDS011;1158;48.750;9.078;2023-05-07T03:02:37;9.73;;;4.97;;
2299;SDS011;1158;48.750;9.078;2023-05-07T03:05:05;6.70;;;4.27;;
2299;SDS011;1158;48.750;9.078;2023-05-07T03:07:34;7.87;;;4.73;;
2299;SDS011;1158;48.750;9.078;2023-05-07T03:10:00;6.60;;;4.90;;
2299;SDS011;1158;48.750;9.078;2023-05-07T03:12:27;7.20;;;5.10;;
2299;SDS011;1158;48.750;9.078;2023-05-07T03:14:54;5.27;;;4.50;;
2299;SDS011;1158;48.750;9.078;2023-05-07T03:17:21;7.27;;;4.80;;
2299;SDS011;1158;48.750;9.078;2023-05-07T03:19:47;5.80;;;4.70;;
2299;SDS011;1158;48.750;9.078;2023-05-07T03:22:14;6.17;;;4.80;;
2299;SDS011;1158;48.750;9.078;2023-05-07T03:24:42;9.50;;;4.93;;
2299;SDS011;1158;48.750;9.078;2023-05-07T03:27:09;8.83;;;5.20;;
2299;SDS011;1158;48.750;9.078;2023-05-07T03:29:36;9.37;;;5.80;;
2299;SDS011;1158;48.750;9.078;2023-05-07T03:32:03;8.57;;;6.03;;
2299;SDS011;1158;48.750;9.078;2023-05-07T03:34:30;6.80;;;5.03;;
2299;SDS011;1158;48.750;9.078;2023-05-07T03:36:57;5.87;;;4.90;;
2299;SDS011;1158;48.750;9.078;2023-05-07T03:39:24;8.13;;;5.03;;
2299;SDS011;1158;48.750;9.078;2023-05-07T03:41:52;5.47;;;4.70;;
2299;SDS011;1158;48.750;9.078;2023-05-07T03:44:19;7.30;;;4.80;;
2299;SDS011;1158;48.750;9.078;2023-05-07T03:46:45;7.47;;;5.77;;
2299;SDS011;1158;48.750;9.078;2023-05-07T03:49:12;4.40;;;3.83;;
2299;SDS011;1158;48.750;9.078;2023-05-07T03:51:39;5.60;;;4.30;;
2299;SDS011;1158;48.750;9.078;2023-05-07T03:54:05;6.40;;;4.87;;
2299;SDS011;1158;48.750;9.078;2023-05-07T03:56:32;10.90;;;4.70;;
2299;SDS011;1158;48.750;9.078;2023-05-07T03:59:00;9.57;;;5.10;;
2299;SDS011;1158;48.750;9.078;2023-05-07T04:01:27;6.30;;;4.90;;
2299;SDS011;1158;48.750;9.078;2023-05-07T04:03:54;7.83;;;5.67;;
2299;SDS011;1158;48.750;9.078;2023-05-07T04:06:21;7.70;;;5.43;;
2299;SDS011;1158;48.750;9.078;2023-05-07T04:08:48;7.27;;;5.90;;
2299;SDS011;1158;48.750;9.078;2023-05-07T04:11:14;6.80;;;5.10;;
2299;SDS011;1158;48.750;9.078;2023-05-07T04:13:41;6.33;;;5.00;;
2299;SDS011;1158;48.750;9.078;2023-05-07T04:16:09;8.30;;;5.17;;
2299;SDS011;1158;48.750;9.078;2023-05-07T04:18:36;6.13;;;5.03;;
2299;SDS011;1158;48.750;9.078;2023-05-07T04:21:03;7.70;;;5.23;;
2299;SDS011;1158;48.750;9.078;2023-05-07T04:23:30;7.83;;;5.97;;
2299;SDS011;1158;48.750;9.078;2023-05-07T04:25:57;6.67;;;5.77;;
2299;SDS011;1158;48.750;9.078;2023-05-07T04:28:23;6.10;;;4.90;;
2299;SDS011;1158;48.750;9.078;2023-05-07T04:30:50;5.80;;;5.17;;
2299;SDS011;1158;48.750;9.078;2023-05-07T04:33:18;6.40;;;5.13;;
2299;SDS011;1158;48.750;9.078;2023-05-07T04:35:45;7.67;;;5.90;;
2299;SDS011;1158;48.750;9.078;2023-05-07T04:38:12;7.63;;;5.47;;
2299;SDS011;1158;48.750;9.078;2023-05-07T04:40:39;5.80;;;4.80;;
2299;SDS011;1158;48.750;9.078;2023-05-07T04:43:06;8.17;;;5.23;;
2299;SDS011;1158;48.750;9.078;2023-05-07T04:45:34;7.87;;;5.23;;
2299;SDS011;1158;48.750;9.078;2023-05-07T04:48:01;9.30;;;5.43;;
2299;SDS011;1158;48.750;9.078;2023-05-07T04:50:29;7.23;;;5.20;;
2299;SDS011;1158;48.750;9.078;2023-05-07T04:52:56;6.97;;;5.43;;
2299;SDS011;1158;48.750;9.078;2023-05-07T04:55:23;6.73;;;5.57;;
2299;SDS011;1158;48.750;9.078;2023-05-07T04:57:49;10.10;;;4.90;;
2299;SDS011;1158;48.750;9.078;2023-05-07T05:00:16;6.10;;;5.50;;
2299;SDS011;1158;48.750;9.078;2023-05-07T05:02:44;8.43;;;5.40;;
2299;SDS011;1158;48.750;9.078;2023-05-07T05:05:11;6.77;;;4.90;;
2299;SDS011;1158;48.750;9.078;2023-05-07T05:07:39;5.20;;;4.67;;
2299;SDS011;1158;48.750;9.078;2023-05-07T05:10:06;6.93;;;5.30;;
2299;SDS011;1158;48.750;9.078;2023-05-07T05:12:33;6.53;;;4.93;;
2299;SDS011;1158;48.750;9.078;2023-05-07T05:15:00;6.50;;;4.90;;
2299;SDS011;1158;48.750;9.078;2023-05-07T05:17:26;7.60;;;4.97;;
2299;SDS011;1158;48.750;9.078;2023-05-07T05:19:53;7.43;;;5.67;;
2299;SDS011;1158;48.750;9.078;2023-05-07T05:22:20;9.20;;;5.73;;
2299;SDS011;1158;48.750;9.078;2023-05-07T05:24:48;7.13;;;5.93;;
2299;SDS011;1158;48.750;9.078;2023-05-07T05:27:14;6.77;;;5.43;;
2299;SDS011;1158;48.750;9.078;2023-05-07T05:29:41;5.50;;;4.67;;
2299;SDS011;1158;48.750;9.078;2023-05-07T05:32:11;6.87;;;4.77;;
2299;SDS011;1158;48.750;9.078;2023-05-07T05:34:38;5.87;;;4.40;;
2299;SDS011;1158;48.750;9.078;2023-05-07T05:37:05;7.80;;;5.60;;
2299;SDS011;1158;48.750;9.078;2023-05-07T05:39:32;6.23;;;4.63;;
2299;SDS011;1158;48.750;9.078;2023-05-07T05:42:00;6.23;;;4.13;;
2299;SDS011;1158;48.750;9.078;2023-05-07T05:44:27;4.70;;;4.07;;
2299;SDS011;1158;48.750;9.078;2023-05-07T05:46:53;5.17;;;3.80;;
2299;SDS011;1158;48.750;9.078;2023-05-07T05:49:22;5.70;;;3.73;;
2299;SDS011;1158;48.750;9.078;2023-05-07T05:51:49;4.90;;;3.73;;
2299;SDS011;1158;48.750;9.078;2023-05-07T05:54:16;4.90;;;2.97;;
2299;SDS011;1158;48.750;9.078;2023-05-07T05:56:46;4.10;;;2.77;;
2299;SDS011;1158;48.750;9.078;2023-05-07T05:59:18;5.13;;;3.10;;
2299;SDS011;1158;48.750;9.078;2023-05-07T06:01:45;5.20;;;3.30;;
2299;SDS011;1158;48.750;9.078;2023-05-07T06:04:12;7.37;;;2.50;;
2299;SDS011;1158;48.750;9.078;2023-05-07T06:06:38;3.00;;;2.33;;
2299;SDS011;1158;48.750;9.078;2023-05-07T06:09:05;5.37;;;2.73;;
2299;SDS011;1158;48.750;9.078;2023-05-07T06:11:35;4.27;;;2.63;;
2299;SDS011;1158;48.750;9.078;2023-05-07T06:14:09;4.80;;;3.30;;
2299;SDS011;1158;48.750;9.078;2023-05-07T06:16:37;4.17;;;3.40;;
2299;SDS011;1158;48.750;9.078;2023-05-07T06:19:04;4.23;;;3.10;;
2299;SDS011;1158;48.750;9.078;2023-05-07T06:21:30;3.70;;;2.77;;
2299;SDS011;1158;48.750;9.078;2023-05-07T06:23:57;5.27;;;2.80;;
2299;SDS011;1158;48.750;9.078;2023-05-07T06:26:24;4.70;;;3.60;;
2299;SDS011;1158;48.750;9.078;2023-05-07T06:28:50;4.30;;;3.27;;
2299;SDS011;1158;48.750;9.078;2023-05-07T06:31:18;5.77;;;3.23;;
2299;SDS011;1158;48.750;9.078;2023-05-07T06:33:47;4.00;;;3.30;;
2299;SDS011;1158;48.750;9.078;2023-05-07T06:36:14;6.00;;;3.63;;
2299;SDS011;1158;48.750;9.078;2023-05-07T06:38:41;5.83;;;4.27;;
2299;SDS011;1158;48.750;9.078;2023-05-07T06:41:08;7.80;;;3.13;;
2299;SDS011;1158;48.750;9.078;2023-05-07T06:43:35;4.97;;;3.90;;
2299;SDS011;1158;48.750;9.078;2023-05-07T06:46:02;6.03;;;3.53;;
2299;SDS011;1158;48.750;9.078;2023-05-07T06:48:28;6.53;;;3.70;;
2299;SDS011;1158;48.750;9.078;2023-05-07T06:50:56;6.50;;;3.90;;
2299;SDS011;1158;48.750;9.078;2023-05-07T06:53:23;5.30;;;3.77;;
2299;SDS011;1158;48.750;9.078;2023-05-07T06:55:50;4.50;;;3.50;;
2299;SDS011;1158;48.750;9.078;2023-05-07T06:58:17;4.60;;;3.87;;
2299;SDS011;1158;48.750;9.078;2023-05-07T07:00:44;5.10;;;3.73;;
2299;SDS011;1158;48.750;9.078;2023-05-07T07:03:11;6.67;;;3.17;;
2299;SDS011;1158;48.750;9.078;2023-05-07T07:05:40;6.90;;;3.50;;
2299;SDS011;1158;48.750;9.078;2023-05-07T07:08:09;4.73;;;3.30;;
2299;SDS011;1158;48.750;9.078;2023-05-07T07:10:36;5.47;;;3.60;;
2299;SDS011;1158;48.750;9.078;2023-05-07T07:13:03;3.93;;;3.53;;
2299;SDS011;1158;48.750;9.078;2023-05-07T07:15:30;6.33;;;3.60;;
2299;SDS011;1158;48.750;9.078;2023-05-07T07:17:56;6.10;;;3.60;;
2299;SDS011;1158;48.750;9.078;2023-05-07T07:20:23;4.40;;;4.00;;
2299;SDS011;1158;48.750;9.078;2023-05-07T07:22:53;8.37;;;3.77;;
2299;SDS011;1158;48.750;9.078;2023-05-07T07:25:21;4.90;;;3.43;;
2299;SDS011;1158;48.750;9.078;2023-05-07T07:27:48;6.50;;;3.40;;
2299;SDS011;1158;48.750;9.078;2023-05-07T07:30:15;5.63;;;3.47;;
2299;SDS011;1158;48.750;9.078;2023-05-07T07:32:42;4.57;;;3.77;;
2299;SDS011;1158;48.750;9.078;2023-05-07T07:35:09;5.27;;;3.43;;
2299;SDS011;1158;48.750;9.078;2023-05-07T07:37:35;5.50;;;3.47;;
2299;SDS011;1158;48.750;9.078;2023-05-07T07:40:02;4.33;;;3.50;;
2299;SDS011;1158;48.750;9.078;2023-05-07T07:42:31;4.80;;;3.83;;
2299;SDS011;1158;48.750;9.078;2023-05-07T07:44:58;4.80;;;4.10;;
2299;SDS011;1158;48.750;9.078;2023-05-07T07:47:25;4.53;;;3.27;;
2299;SDS011;1158;48.750;9.078;2023-05-07T07:49:51;4.50;;;3.00;;
2299;SDS011;1158;48.750;9.078;2023-05-07T07:52:18;6.13;;;3.67;;
2299;SDS011;1158;48.750;9.078;2023-05-07T07:54:45;4.37;;;2.90;;
2299;SDS011;1158;48.750;9.078;2023-05-07T07:57:12;4.40;;;3.70;;
2299;SDS011;1158;48.750;9.078;2023-05-07T07:59:40;5.93;;;4.20;;
2299;SDS011;1158;48.750;9.078;2023-05-07T08:02:08;4.50;;;3.40;;
2299;SDS011;1158;48.750;9.078;2023-05-07T08:04:35;3.57;;;3.00;;
2299;SDS011;1158;48.750;9.078;2023-05-07T08:07:02;4.60;;;3.30;;
2299;SDS011;1158;48.750;9.078;2023-05-07T08:09:29;8.50;;;3.40;;
2299;SDS011;1158;48.750;9.078;2023-05-07T08:12:01;6.00;;;3.30;;
2299;SDS011;1158;48.750;9.078;2023-05-07T08:14:34;3.70;;;2.70;;
2299;SDS011;1158;48.750;9.078;2023-05-07T08:17:03;4.83;;;3.50;;
2299;SDS011;1158;48.750;9.078;2023-05-07T08:19:30;4.33;;;3.00;;
2299;SDS011;1158;48.750;9.078;2023-05-07T08:21:56;4.00;;;3.00;;
2299;SDS011;1158;48.750;9.078;2023-05-07T08:24:23;3.90;;;2.50;;
2299;SDS011;1158;48.750;9.078;2023-05-07T08:26:50;6.53;;;3.30;;
2299;SDS011;1158;48.750;9.078;2023-05-07T08:29:16;4.67;;;2.90;;
2299;SDS011;1158;48.750;9.078;2023-05-07T08:31:43;5.40;;;3.00;;
2299;SDS011;1158;48.750;9.078;2023-05-07T08:34:11;5.53;;;3.20;;
2299;SDS011;1158;48.750;9.078;2023-05-07T08:36:38;3.43;;;2.93;;
2299;SDS011;1158;48.750;9.078;2023-05-07T08:39:06;3.20;;;2.73;;
2299;SDS011;1158;48.750;9.078;2023-05-07T08:41:34;3.20;;;2.53;;
2299;SDS011;1158;48.750;9.078;2023-05-07T08:44:01;3.70;;;2.90;;
2299;SDS011;1158;48.750;9.078;2023-05-07T08:46:30;5.27;;;2.53;;
2299;SDS011;1158;48.750;9.078;2023-05-07T08:48:58;3.20;;;2.87;;
2299;SDS011;1158;48.750;9.078;2023-05-07T08:51:26;5.27;;;2.70;;
2299;SDS011;1158;48.750;9.078;2023-05-07T08:53:52;3.47;;;2.70;;
2299;SDS011;1158;48.750;9.078;2023-05-07T08:56:19;4.50;;;2.30;;
2299;SDS011;1158;48.750;9.078;2023-05-07T08:58:47;4.33;;;2.70;;
2299;SDS011;1158;48.750;9.078;2023-05-07T09:01:14;5.30;;;3.10;;
2299;SDS011;1158;48.750;9.078;2023-05-07T09:03:43;3.57;;;2.70;;
2299;SDS011;1158;48.750;9.078;2023-05-07T09:06:11;3.33;;;2.73;;
2299;SDS011;1158;48.750;9.078;2023-05-07T09:08:39;3.20;;;2.40;;
2299;SDS011;1158;48.750;9.078;2023-05-07T09:11:06;3.50;;;2.57;;
2299;SDS011;1158;48.750;9.078;2023-05-07T09:13:33;5.77;;;3.27;;
2299;SDS011;1158;48.750;9.078;2023-05-07T09:16:06;4.43;;;2.63;;
2299;SDS011;1158;48.750;9.078;2023-05-07T09:18:40;3.20;;;2.70;;
2299;SDS011;1158;48.750;9.078;2023-05-07T09:21:09;3.40;;;2.90;;
2299;SDS011;1158;48.750;9.078;2023-05-07T09:23:36;6.20;;;2.93;;
2299;SDS011;1158;48.750;9.078;2023-05-07T09:26:04;5.50;;;2.90;;
2299;SDS011;1158;48.750;9.078;2023-05-07T09:28:33;3.03;;;2.60;;
2299;SDS011;1158;48.750;9.078;2023-05-07T09:31:00;4.47;;;3.30;;
2299;SDS011;1158;48.750;9.078;2023-05-07T09:33:27;3.20;;;2.50;;
2299;SDS011;1158;48.750;9.078;2023-05-07T09:35:54;4.63;;;2.93;;
2299;SDS011;1158;48.750;9.078;2023-05-07T09:38:21;4.20;;;2.60;;
2299;SDS011;1158;48.750;9.078;2023-05-07T09:40:48;4.03;;;2.60;;
2299;SDS011;1158;48.750;9.078;2023-05-07T09:43:31;4.30;;;2.90;;
2299;SDS011;1158;48.750;9.078;2023-05-07T09:45:58;6.03;;;2.70;;
2299;SDS011;1158;48.750;9.078;2023-05-07T09:48:28;7.03;;;3.00;;
2299;SDS011;1158;48.750;9.078;2023-05-07T09:50:56;5.47;;;3.00;;
2299;SDS011;1158;48.750;9.078;2023-05-07T09:53:27;4.97;;;3.00;;
2299;SDS011;1158;48.750;9.078;2023-05-07T09:55:56;5.40;;;3.13;;
2299;SDS011;1158;48.750;9.078;2023-05-07T09:58:24;4.93;;;2.77;;
2299;SDS011;1158;48.750;9.078;2023-05-07T10:00:53;4.50;;;2.70;;
2299;SDS011;1158;48.750;9.078;2023-05-07T10:03:22;4.40;;;2.90;;
2299;SDS011;1158;48.750;9.078;2023-05-07T10:05:53;6.57;;;3.00;;
2299;SDS011;1158;48.750;9.078;2023-05-07T10:08:20;7.90;;;2.83;;
2299;SDS011;1158;48.750;9.078;2023-05-07T10:10:47;3.87;;;2.70;;
2299;SDS011;1158;48.750;9.078;2023-05-07T10:13:16;6.70;;;3.37;;
2299;SDS011;1158;48.750;9.078;2023-05-07T10:15:45;4.43;;;3.10;;
2299;SDS011;1158;48.750;9.078;2023-05-07T10:18:14;6.47;;;3.10;;
2299;SDS011;1158;48.750;9.078;2023-05-07T10:20:42;5.17;;;2.70;;
2299;SDS011;1158;48.750;9.078;2023-05-07T10:23:12;3.67;;;2.93;;
2299;SDS011;1158;48.750;9.078;2023-05-07T10:25:44;6.10;;;3.00;;
2299;SDS011;1158;48.750;9.078;2023-05-07T10:28:11;4.57;;;2.90;;
2299;SDS011;1158;48.750;9.078;2023-05-07T10:30:42;3.97;;;3.10;;
2299;SDS011;1158;48.750;9.078;2023-05-07T10:33:21;3.40;;;3.10;;
2299;SDS011;1158;48.750;9.078;2023-05-07T10:35:51;4.20;;;2.70;;
2299;SDS011;1158;48.750;9.078;2023-05-07T10:38:23;5.03;;;2.90;;
2299;SDS011;1158;48.750;9.078;2023-05-07T10:40:51;5.13;;;2.90;;
2299;SDS011;1158;48.750;9.078;2023-05-07T10:43:18;3.10;;;2.63;;
2299;SDS011;1158;48.750;9.078;2023-05-07T10:45:49;4.83;;;2.63;;
2299;SDS011;1158;48.750;9.078;2023-05-07T10:48:39;3.80;;;2.57;;
2299;SDS011;1158;48.750;9.078;2023-05-07T10:51:36;6.10;;;2.53;;
2299;SDS011;1158;48.750;9.078;2023-05-07T10:54:22;2.80;;;2.27;;
2299;SDS011;1158;48.750;9.078;2023-05-07T10:56:52;5.03;;;3.10;;
2299;SDS011;1158;48.750;9.078;2023-05-07T10:59:34;7.13;;;2.53;;
2299;SDS011;1158;48.750;9.078;2023-05-07T11:02:07;4.53;;;2.60;;
2299;SDS011;1158;48.750;9.078;2023-05-07T11:04:37;6.10;;;3.10;;
2299;SDS011;1158;48.750;9.078;2023-05-07T11:09:57;6.77;;;3.10;;
2299;SDS011;1158;48.750;9.078;2023-05-07T11:15:34;5.90;;;3.30;;
2299;SDS011;1158;48.750;9.078;2023-05-07T11:18:02;6.30;;;4.57;;
2299;SDS011;1158;48.750;9.078;2023-05-07T11:20:46;9.70;;;6.47;;
2299;SDS011;1158;48.750;9.078;2023-05-07T11:26:23;3.10;;;2.40;;
2299;SDS011;1158;48.750;9.078;2023-05-07T11:28:51;3.40;;;3.00;;
2299;SDS011;1158;48.750;9.078;2023-05-07T11:31:22;15.70;;;9.70;;
2299;SDS011;1158;48.750;9.078;2023-05-07T11:33:52;5.90;;;3.83;;
2299;SDS011;1158;48.750;9.078;2023-05-07T11:36:21;6.00;;;3.13;;
2299;SDS011;1158;48.750;9.078;2023-05-07T11:38:49;6.00;;;2.93;;
2299;SDS011;1158;48.750;9.078;2023-05-07T11:41:16;7.00;;;3.60;;
2299;SDS011;1158;48.750;9.078;2023-05-07T11:43:54;10.90;;;4.47;;
2299;SDS011;1158;48.750;9.078;2023-05-07T11:46:24;12.93;;;4.70;;
2299;SDS011;1158;48.750;9.078;2023-05-07T11:48:52;9.30;;;5.17;;
2299;SDS011;1158;48.750;9.078;2023-05-07T11:51:21;12.33;;;6.30;;
2299;SDS011;1158;48.750;9.078;2023-05-07T11:53:50;9.57;;;5.50;;
2299;SDS011;1158;48.750;9.078;2023-05-07T11:56:18;14.57;;;6.30;;
2299;SDS011;1158;48.750;9.078;2023-05-07T11:58:46;12.93;;;7.20;;
2299;SDS011;1158;48.750;9.078;2023-05-07T12:01:13;12.50;;;7.33;;
2299;SDS011;1158;48.750;9.078;2023-05-07T12:03:41;8.53;;;6.23;;
2299;SDS011;1158;48.750;9.078;2023-05-07T12:06:10;9.10;;;5.80;;
2299;SDS011;1158;48.750;9.078;2023-05-07T12:08:40;10.33;;;4.40;;
2299;SDS011;1158;48.750;9.078;2023-05-07T12:11:08;7.37;;;3.63;;
2299;SDS011;1158;48.750;9.078;2023-05-07T12:13:36;7.90;;;3.67;;
2299;SDS011;1158;48.750;9.078;2023-05-07T12:16:04;10.67;;;3.67;;
2299;SDS011;1158;48.750;9.078;2023-05-07T12:18:32;12.77;;;3.43;;
2299;SDS011;1158;48.750;9.078;2023-05-07T12:21:00;9.33;;;3.00;;
2299;SDS011;1158;48.750;9.078;2023-05-07T12:23:27;18.70;;;3.90;;
2299;SDS011;1158;48.750;9.078;2023-05-07T12:25:56;12.60;;;3.80;;
2299;SDS011;1158;48.750;9.078;2023-05-07T12:28:23;10.87;;;4.33;;
2299;SDS011;1158;48.750;9.078;2023-05-07T12:30:50;11.13;;;3.33;;
2299;SDS011;1158;48.750;9.078;2023-05-07T12:33:17;7.90;;;4.90;;
2299;SDS011;1158;48.750;9.078;2023-05-07T12:35:49;9.33;;;3.90;;
2299;SDS011;1158;48.750;9.078;2023-05-07T12:38:17;6.60;;;3.90;;
2299;SDS011;1158;48.750;9.078;2023-05-07T12:40:44;9.57;;;3.87;;
2299;SDS011;1158;48.750;9.078;2023-05-07T12:43:17;8.93;;;3.80;;
2299;SDS011;1158;48.750;9.078;2023-05-07T12:45:44;15.47;;;4.73;;
2299;SDS011;1158;48.750;9.078;2023-05-07T12:48:12;7.63;;;4.23;;
2299;SDS011;1158;48.750;9.078;2023-05-07T12:50:39;10.00;;;4.70;;
2299;SDS011;1158;48.750;9.078;2023-05-07T12:53:07;7.27;;;4.70;;
2299;SDS011;1158;48.750;9.078;2023-05-07T12:55:40;14.70;;;4.80;;
2299;SDS011;1158;48.750;9.078;2023-05-07T12:58:08;9.17;;;4.50;;
2299;SDS011;1158;48.750;9.078;2023-05-07T13:00:43;6.27;;;4.50;;
2299;SDS011;1158;48.750;9.078;2023-05-07T13:03:11;5.13;;;3.60;;
2299;SDS011;1158;48.750;9.078;2023-05-07T13:05:38;9.73;;;4.13;;
2299;SDS011;1158;48.750;9.078;2023-05-07T13:08:05;6.97;;;4.73;;
2299;SDS011;1158;48.750;9.078;2023-05-07T13:10:34;5.07;;;3.40;;
2299;SDS011;1158;48.750;9.078;2023-05-07T13:13:01;6.97;;;3.50;;
2299;SDS011;1158;48.750;9.078;2023-05-07T13:15:28;9.13;;;3.77;;
2299;SDS011;1158;48.750;9.078;2023-05-07T13:17:56;5.33;;;3.30;;
2299;SDS011;1158;48.750;9.078;2023-05-07T13:20:23;5.60;;;3.43;;
2299;SDS011;1158;48.750;9.078;2023-05-07T13:22:50;5.80;;;3.23;;
2299;SDS011;1158;48.750;9.078;2023-05-07T13:25:16;5.57;;;3.03;;
2299;SDS011;1158;48.750;9.078;2023-05-07T13:27:43;6.40;;;3.50;;
2299;SDS011;1158;48.750;9.078;2023-05-07T13:30:10;5.40;;;3.70;;
2299;SDS011;1158;48.750;9.078;2023-05-07T13:32:37;6.00;;;3.10;;
2299;SDS011;1158;48.750;9.078;2023-05-07T13:35:05;11.67;;;4.73;;
2299;SDS011;1158;48.750;9.078;2023-05-07T13:37:33;5.10;;;2.83;;
2299;SDS011;1158;48.750;9.078;2023-05-07T13:40:00;5.43;;;3.20;;
2299;SDS011;1158;48.750;9.078;2023-05-07T13:42:26;4.00;;;2.47;;
2299;SDS011;1158;48.750;9.078;2023-05-07T13:44:53;4.73;;;2.87;;
2299;SDS011;1158;48.750;9.078;2023-05-07T13:47:20;6.80;;;2.83;;
2299;SDS011;1158;48.750;9.078;2023-05-07T13:49:47;8.33;;;3.37;;
2299;SDS011;1158;48.750;9.078;2023-05-07T13:52:16;6.13;;;3.33;;
2299;SDS011;1158;48.750;9.078;2023-05-07T13:54:42;5.47;;;3.20;;
2299;SDS011;1158;48.750;9.078;2023-05-07T13:57:09;4.23;;;3.20;;
2299;SDS011;1158;48.750;9.078;2023-05-07T13:59:36;4.80;;;3.50;;
2299;SDS011;1158;48.750;9.078;2023-05-07T14:02:02;6.80;;;3.70;;
2299;SDS011;1158;48.750;9.078;2023-05-07T14:04:30;6.40;;;4.10;;
2299;SDS011;1158;48.750;9.078;2023-05-07T14:06:57;6.00;;;4.30;;
2299;SDS011;1158;48.750;9.078;2023-05-07T14:09:25;7.60;;;4.13;;
2299;SDS011;1158;48.750;9.078;2023-05-07T14:11:52;6.60;;;4.47;;
2299;SDS011;1158;48.750;9.078;2023-05-07T14:14:19;15.53;;;4.77;;
2299;SDS011;1158;48.750;9.078;2023-05-07T14:16:46;8.77;;;4.40;;
2299;SDS011;1158;48.750;9.078;2023-05-07T14:19:12;7.73;;;4.37;;
2299;SDS011;1158;48.750;9.078;2023-05-07T14:21:39;7.47;;;4.87;;
2299;SDS011;1158;48.750;9.078;2023-05-07T14:24:06;16.90;;;5.57;;
2299;SDS011;1158;48.750;9.078;2023-05-07T14:26:35;6.53;;;5.13;;
2299;SDS011;1158;48.750;9.078;2023-05-07T14:29:01;12.77;;;5.33;;
2299;SDS011;1158;48.750;9.078;2023-05-07T14:31:28;6.80;;;4.83;;
2299;SDS011;1158;48.750;9.078;2023-05-07T14:33:55;11.57;;;4.33;;
2299;SDS011;1158;48.750;9.078;2023-05-07T14:36:24;6.67;;;4.20;;
2299;SDS011;1158;48.750;9.078;2023-05-07T14:38:52;9.23;;;4.03;;
2299;SDS011;1158;48.750;9.078;2023-05-07T14:41:19;7.33;;;4.30;;
2299;SDS011;1158;48.750;9.078;2023-05-07T14:43:48;7.20;;;4.10;;
2299;SDS011;1158;48.750;9.078;2023-05-07T14:46:16;5.17;;;4.00;;
2299;SDS011;1158;48.750;9.078;2023-05-07T14:48:43;5.90;;;3.77;;
2299;SDS011;1158;48.750;9.078;2023-05-07T14:51:11;5.47;;;3.43;;
2299;SDS011;1158;48.750;9.078;2023-05-07T14:53:37;6.87;;;4.13;;
2299;SDS011;1158;48.750;9.078;2023-05-07T14:56:04;6.00;;;4.40;;
2299;SDS011;1158;48.750;9.078;2023-05-07T14:58:31;5.90;;;4.27;;
2299;SDS011;1158;48.750;9.078;2023-05-07T15:00:59;6.10;;;4.37;;
2299;SDS011;1158;48.750;9.078;2023-05-07T15:03:26;6.90;;;4.60;;
2299;SDS011;1158;48.750;9.078;2023-05-07T15:05:53;10.77;;;4.20;;
2299;SDS011;1158;48.750;9.078;2023-05-07T15:08:20;9.27;;;6.10;;
2299;SDS011;1158;48.750;9.078;2023-05-07T15:10:47;7.20;;;5.00;;
2299;SDS011;1158;48.750;9.078;2023-05-07T15:13:14;9.57;;;4.83;;
2299;SDS011;1158;48.750;9.078;2023-05-07T15:15:41;16.40;;;5.37;;
2299;SDS011;1158;48.750;9.078;2023-05-07T15:18:09;6.17;;;4.20;;
2299;SDS011;1158;48.750;9.078;2023-05-07T15:20:36;6.47;;;4.67;;
2299;SDS011;1158;48.750;9.078;2023-05-07T15:23:03;6.90;;;5.00;;
2299;SDS011;1158;48.750;9.078;2023-05-07T15:25:34;6.20;;;4.87;;
2299;SDS011;1158;48.750;9.078;2023-05-07T15:28:01;5.33;;;4.47;;